sensor_id;sensor_type;location;lat;lon;timestamp;pressure;altitude;pressure_sealevel;temperature;humidity
46690;BME280;32423;45.398;10.874;2024-01-30T00:00:28;102857.91;;;2.96;63.60
46690;BME280;32423;45.398;10.874;2024-01-30T00:03:18;102856.50;;;2.87;63.70
46690;BME280;32423;45.398;10.874;2024-01-30T00:06:10;102856.09;;;2.71;64.48
46690;BME280;32423;45.398;10.874;2024-01-30T00:09:00;102851.16;;;2.74;63.77
46690;BME280;32423;45.398;10.874;2024-01-30T00:11:49;102845.97;;;2.79;63.16
46690;BME280;32423;45.398;10.874;2024-01-30T00:14:41;102843.06;;;2.87;63.29
46690;BME280;32423;45.398;10.874;2024-01-30T00:17:33;102845.16;;;2.79;62.86
46690;BME280;32423;45.398;10.874;2024-01-30T00:20:25;102840.63;;;2.79;62.66
46690;BME280;32423;45.398;10.874;2024-01-30T00:23:17;102836.03;;;2.80;63.09
46690;BME280;32423;45.398;10.874;2024-01-30T00:26:09;102845.97;;;2.79;63.60
46690;BME280;32423;45.398;10.874;2024-01-30T00:28:59;102842.91;;;2.63;63.77
46690;BME280;32423;45.398;10.874;2024-01-30T00:31:51;102844.16;;;2.60;63.95
46690;BME280;32423;45.398;10.874;2024-01-30T00:34:41;102844.78;;;2.55;64.41
46690;BME280;32423;45.398;10.874;2024-01-30T00:37:28;102836.09;;;2.60;64.67
46690;BME280;32423;45.398;10.874;2024-01-30T00:40:20;102846.63;;;2.62;64.71
46690;BME280;32423;45.398;10.874;2024-01-30T00:43:09;102839.84;;;2.46;65.24
46690;BME280;32423;45.398;10.874;2024-01-30T00:46:02;102842.72;;;2.44;65.29
46690;BME280;32423;45.398;10.874;2024-01-30T00:48:54;102842.72;;;2.44;65.81
46690;BME280;32423;45.398;10.874;2024-01-30T00:51:43;102850.38;;;2.41;65.83
46690;BME280;32423;45.398;10.874;2024-01-30T00:54:35;102846.03;;;2.40;66.41
46690;BME280;32423;45.398;10.874;2024-01-30T00:57:27;102861.72;;;2.49;67.07
46690;BME280;32423;45.398;10.874;2024-01-30T01:00:17;102854.50;;;2.50;67.22
46690;BME280;32423;45.398;10.874;2024-01-30T01:03:06;102860.91;;;2.42;67.52
46690;BME280;32423;45.398;10.874;2024-01-30T01:05:58;102861.75;;;2.43;67.99
46690;BME280;32423;45.398;10.874;2024-01-30T01:08:50;102853.06;;;2.34;68.33
46690;BME280;32423;45.398;10.874;2024-01-30T01:11:40;102855.97;;;2.26;68.84
46690;BME280;32423;45.398;10.874;2024-01-30T01:14:26;102863.00;;;2.27;69.18
46690;BME280;32423;45.398;10.874;2024-01-30T01:17:16;102859.69;;;2.19;69.72
46690;BME280;32423;45.398;10.874;2024-01-30T01:20:08;102872.06;;;2.20;70.16
46690;BME280;32423;45.398;10.874;2024-01-30T01:23:00;102869.59;;;2.11;70.41
46690;BME280;32423;45.398;10.874;2024-01-30T01:25:52;102870.84;;;2.15;70.44
46690;BME280;32423;45.398;10.874;2024-01-30T01:28:44;102870.00;;;2.15;70.46
46690;BME280;32423;45.398;10.874;2024-01-30T01:31:36;102864.44;;;2.23;70.23
46690;BME280;32423;45.398;10.874;2024-01-30T01:34:29;102864.22;;;2.31;70.47
46690;BME280;32423;45.398;10.874;2024-01-30T01:37:21;102860.31;;;2.27;69.88
46690;BME280;32423;45.398;10.874;2024-01-30T01:40:12;102862.97;;;2.40;70.86
46690;BME280;32423;45.398;10.874;2024-01-30T01:43:02;102859.25;;;2.48;70.65
46690;BME280;32423;45.398;10.874;2024-01-30T01:45:55;102855.53;;;2.55;70.87
46690;BME280;32423;45.398;10.874;2024-01-30T01:48:47;102855.13;;;2.52;69.33
46690;BME280;32423;45.398;10.874;2024-01-30T01:51:39;102856.97;;;2.58;70.00
46690;BME280;32423;45.398;10.874;2024-01-30T01:54:33;102854.25;;;2.65;70.14
46690;BME280;32423;45.398;10.874;2024-01-30T01:57:24;102860.25;;;2.73;68.62
46690;BME280;32423;45.398;10.874;2024-01-30T02:00:16;102852.34;;;2.85;68.57
46690;BME280;32423;45.398;10.874;2024-01-30T02:03:09;102856.28;;;2.89;68.79
46690;BME280;32423;45.398;10.874;2024-01-30T02:06:01;102850.34;;;2.74;69.13
46690;BME280;32423;45.398;10.874;2024-01-30T02:08:52;102849.25;;;2.81;68.72
46690;BME280;32423;45.398;10.874;2024-01-30T02:11:44;102848.09;;;2.64;69.90
46690;BME280;32423;45.398;10.874;2024-01-30T02:14:43;102849.72;;;2.65;69.04
46690;BME280;32423;45.398;10.874;2024-01-30T02:17:36;102834.66;;;2.44;69.45
46690;BME280;32423;45.398;10.874;2024-01-30T02:20:28;102838.22;;;2.32;69.48
46690;BME280;32423;45.398;10.874;2024-01-30T02:23:21;102840.28;;;2.36;69.23
46690;BME280;32423;45.398;10.874;2024-01-30T02:26:14;102839.44;;;2.42;68.64
46690;BME280;32423;45.398;10.874;2024-01-30T02:29:06;102828.31;;;2.32;68.76
46690;BME280;32423;45.398;10.874;2024-01-30T02:31:58;102835.13;;;2.28;69.85
46690;BME280;32423;45.398;10.874;2024-01-30T02:34:48;102834.91;;;2.36;69.14
46690;BME280;32423;45.398;10.874;2024-01-30T02:37:40;102842.13;;;2.36;68.57
46690;BME280;32423;45.398;10.874;2024-01-30T02:40:32;102834.91;;;2.36;68.75
46690;BME280;32423;45.398;10.874;2024-01-30T02:43:24;102832.84;;;2.38;67.59
46690;BME280;32423;45.398;10.874;2024-01-30T02:46:16;102830.56;;;2.09;68.13
46690;BME280;32423;45.398;10.874;2024-01-30T02:49:08;102826.66;;;1.92;69.11
46690;BME280;32423;45.398;10.874;2024-01-30T02:52:00;102832.84;;;1.99;68.49
46690;BME280;32423;45.398;10.874;2024-01-30T02:54:50;102830.16;;;1.86;69.10
46690;BME280;32423;45.398;10.874;2024-01-30T02:57:42;102827.47;;;1.99;69.33
46690;BME280;32423;45.398;10.874;2024-01-30T03:00:34;102818.41;;;1.87;70.33
46690;BME280;32423;45.398;10.874;2024-01-30T03:03:23;102817.81;;;1.98;69.88
46690;BME280;32423;45.398;10.874;2024-01-30T03:06:13;102817.16;;;2.15;68.75
46690;BME280;32423;45.398;10.874;2024-01-30T03:09:05;102816.97;;;2.17;67.54
46690;BME280;32423;45.398;10.874;2024-01-30T03:11:56;102814.44;;;2.42;67.18
46690;BME280;32423;45.398;10.874;2024-01-30T03:14:48;102819.63;;;2.43;66.60
46690;BME280;32423;45.398;10.874;2024-01-30T03:17:40;102820.41;;;2.50;66.15
46690;BME280;32423;45.398;10.874;2024-01-30T03:20:37;102817.34;;;2.47;65.70
46690;BME280;32423;45.398;10.874;2024-01-30T03:23:29;102818.34;;;2.52;64.92
46690;BME280;32423;45.398;10.874;2024-01-30T03:26:21;102822.31;;;2.43;64.80
46690;BME280;32423;45.398;10.874;2024-01-30T03:29:13;102817.53;;;2.39;65.33
46690;BME280;32423;45.398;10.874;2024-01-30T03:32:05;102817.75;;;2.24;65.86
46690;BME280;32423;45.398;10.874;2024-01-30T03:34:55;102819.44;;;2.12;66.85
46690;BME280;32423;45.398;10.874;2024-01-30T03:37:47;102820.50;;;1.98;67.72
46690;BME280;32423;45.398;10.874;2024-01-30T03:40:36;102815.31;;;1.77;66.72
46690;BME280;32423;45.398;10.874;2024-01-30T03:43:28;102816.53;;;1.61;67.74
46690;BME280;32423;45.398;10.874;2024-01-30T03:46:20;102806.00;;;1.59;68.48
46690;BME280;32423;45.398;10.874;2024-01-30T03:49:13;102818.78;;;1.64;67.79
46690;BME280;32423;45.398;10.874;2024-01-30T03:52:05;102806.63;;;1.61;68.48
46690;BME280;32423;45.398;10.874;2024-01-30T03:54:57;102800.63;;;1.53;68.57
46690;BME280;32423;45.398;10.874;2024-01-30T03:57:46;102807.84;;;1.52;68.73
46690;BME280;32423;45.398;10.874;2024-01-30T04:00:38;102812.16;;;1.53;69.40
46690;BME280;32423;45.398;10.874;2024-01-30T04:03:30;102804.75;;;1.55;68.77
46690;BME280;32423;45.398;10.874;2024-01-30T04:06:21;102808.25;;;1.49;69.41
46690;BME280;32423;45.398;10.874;2024-01-30T04:09:14;102800.84;;;1.51;70.18
46690;BME280;32423;45.398;10.874;2024-01-30T04:12:05;102804.97;;;1.60;69.55
46690;BME280;32423;45.398;10.874;2024-01-30T04:14:57;102800.41;;;1.54;68.72
46690;BME280;32423;45.398;10.874;2024-01-30T04:17:49;102798.97;;;1.45;69.65
46690;BME280;32423;45.398;10.874;2024-01-30T04:20:41;102798.97;;;1.45;70.03
46690;BME280;32423;45.398;10.874;2024-01-30T04:23:33;102798.94;;;1.32;70.41
46690;BME280;32423;45.398;10.874;2024-01-30T04:26:25;102800.94;;;1.17;70.09
46690;BME280;32423;45.398;10.874;2024-01-30T04:29:16;102804.25;;;1.19;71.48
46690;BME280;32423;45.398;10.874;2024-01-30T04:32:08;102798.69;;;1.27;71.26
46690;BME280;32423;45.398;10.874;2024-01-30T04:35:00;102801.78;;;1.24;71.32
46690;BME280;32423;45.398;10.874;2024-01-30T04:37:52;102797.69;;;1.28;72.35
46690;BME280;32423;45.398;10.874;2024-01-30T04:40:44;102801.44;;;1.40;72.96
46690;BME280;32423;45.398;10.874;2024-01-30T04:43:36;102794.19;;;1.34;71.31
46690;BME280;32423;45.398;10.874;2024-01-30T04:46:25;102807.00;;;1.32;70.87
46690;BME280;32423;45.398;10.874;2024-01-30T04:49:17;102795.84;;;1.35;70.92
46690;BME280;32423;45.398;10.874;2024-01-30T04:52:06;102805.94;;;1.33;71.96
46690;BME280;32423;45.398;10.874;2024-01-30T04:54:58;102792.13;;;1.43;71.65
46690;BME280;32423;45.398;10.874;2024-01-30T04:57:51;102794.84;;;1.49;72.03
46690;BME280;32423;45.398;10.874;2024-01-30T05:00:40;102795.25;;;1.46;71.26
46690;BME280;32423;45.398;10.874;2024-01-30T05:03:32;102798.53;;;1.48;70.86
46690;BME280;32423;45.398;10.874;2024-01-30T05:06:28;102799.81;;;1.52;70.94
46690;BME280;32423;45.398;10.874;2024-01-30T05:09:19;102802.66;;;1.38;71.03
46690;BME280;32423;45.398;10.874;2024-01-30T05:12:11;102798.97;;;1.45;71.25
46690;BME280;32423;45.398;10.874;2024-01-30T05:15:03;102799.16;;;1.44;71.60
46690;BME280;32423;45.398;10.874;2024-01-30T05:17:53;102800.19;;;1.43;71.08
46690;BME280;32423;45.398;10.874;2024-01-30T05:20:45;102803.53;;;1.51;70.78
46690;BME280;32423;45.398;10.874;2024-01-30T05:23:34;102801.00;;;1.43;71.42
46690;BME280;32423;45.398;10.874;2024-01-30T05:26:29;102796.09;;;1.47;72.01
46690;BME280;32423;45.398;10.874;2024-01-30T05:29:20;102799.97;;;1.38;70.85
46690;BME280;32423;45.398;10.874;2024-01-30T05:32:13;102803.91;;;1.35;70.84
46690;BME280;32423;45.398;10.874;2024-01-30T05:35:05;102799.38;;;1.42;70.27
46690;BME280;32423;45.398;10.874;2024-01-30T05:37:57;102811.94;;;1.35;70.07
46690;BME280;32423;45.398;10.874;2024-01-30T05:40:46;102814.78;;;1.27;69.81
46690;BME280;32423;45.398;10.874;2024-01-30T05:43:38;102811.72;;;1.30;69.39
46690;BME280;32423;45.398;10.874;2024-01-30T05:46:30;102810.91;;;1.36;69.70
46690;BME280;32423;45.398;10.874;2024-01-30T05:49:22;102809.88;;;1.37;69.80
46690;BME280;32423;45.398;10.874;2024-01-30T05:52:15;102811.09;;;1.35;69.82
46690;BME280;32423;45.398;10.874;2024-01-30T05:55:07;102808.19;;;1.23;69.36
46690;BME280;32423;45.398;10.874;2024-01-30T05:57:59;102812.50;;;1.24;69.44
46690;BME280;32423;45.398;10.874;2024-01-30T06:00:51;102814.78;;;1.20;68.91
46690;BME280;32423;45.398;10.874;2024-01-30T06:03:43;102809.63;;;1.19;69.38
46690;BME280;32423;45.398;10.874;2024-01-30T06:06:32;102807.13;;;1.17;69.23
46690;BME280;32423;45.398;10.874;2024-01-30T06:09:24;102813.72;;;1.15;69.03
46690;BME280;32423;45.398;10.874;2024-01-30T06:12:16;102808.94;;;1.04;68.76
46690;BME280;32423;45.398;10.874;2024-01-30T06:15:08;102808.28;;;-0.29;73.20
46690;BME280;32423;45.398;10.874;2024-01-30T06:18:00;102816.59;;;-0.81;76.68
46690;BME280;32423;45.398;10.874;2024-01-30T06:20:50;102824.47;;;-1.09;79.53
46690;BME280;32423;45.398;10.874;2024-01-30T06:23:42;102825.03;;;-1.14;80.74
46690;BME280;32423;45.398;10.874;2024-01-30T06:26:34;102816.91;;;-1.06;81.68
46690;BME280;32423;45.398;10.874;2024-01-30T06:29:24;102822.16;;;-1.56;81.57
46690;BME280;32423;45.398;10.874;2024-01-30T06:32:16;102828.81;;;-2.04;83.13
46690;BME280;32423;45.398;10.874;2024-01-30T06:35:08;102835.06;;;-1.97;85.49
46690;BME280;32423;45.398;10.874;2024-01-30T06:38:00;102834.75;;;-2.17;86.45
46690;BME280;32423;45.398;10.874;2024-01-30T06:40:52;102835.16;;;-2.28;87.25
46690;BME280;32423;45.398;10.874;2024-01-30T06:43:44;102828.31;;;-2.45;88.98
46690;BME280;32423;45.398;10.874;2024-01-30T06:46:36;102840.22;;;-1.96;90.45
46690;BME280;32423;45.398;10.874;2024-01-30T06:49:28;102836.59;;;-1.80;89.49
46690;BME280;32423;45.398;10.874;2024-01-30T06:52:20;102844.09;;;-1.98;89.86
46690;BME280;32423;45.398;10.874;2024-01-30T06:55:12;102841.19;;;-1.74;89.77
46690;BME280;32423;45.398;10.874;2024-01-30T06:58:04;102839.00;;;-1.41;91.25
46690;BME280;32423;45.398;10.874;2024-01-30T07:00:54;102845.09;;;-1.18;90.31
46690;BME280;32423;45.398;10.874;2024-01-30T07:03:43;102849.88;;;-1.28;89.32
46690;BME280;32423;45.398;10.874;2024-01-30T07:06:30;102852.34;;;-0.97;89.02
46690;BME280;32423;45.398;10.874;2024-01-30T07:09:20;102846.25;;;-1.06;87.82
46690;BME280;32423;45.398;10.874;2024-01-30T07:12:12;102849.88;;;-1.13;88.65
46690;BME280;32423;45.398;10.874;2024-01-30T07:15:04;102852.63;;;-1.07;87.48
46690;BME280;32423;45.398;10.874;2024-01-30T07:17:57;102856.91;;;-0.91;86.28
46690;BME280;32423;45.398;10.874;2024-01-30T07:20:49;102858.50;;;-1.41;85.26
46690;BME280;32423;45.398;10.874;2024-01-30T07:23:41;102852.44;;;-1.05;87.42
46690;BME280;32423;45.398;10.874;2024-01-30T07:26:32;102852.88;;;-0.87;86.57
46690;BME280;32423;45.398;10.874;2024-01-30T07:29:24;102863.22;;;-0.99;85.25
46690;BME280;32423;45.398;10.874;2024-01-30T07:32:16;102862.50;;;-1.22;85.61
46690;BME280;32423;45.398;10.874;2024-01-30T07:35:08;102858.13;;;-0.94;86.21
46690;BME280;32423;45.398;10.874;2024-01-30T07:38:00;102864.16;;;-0.70;86.82
46690;BME280;32423;45.398;10.874;2024-01-30T07:40:50;102859.56;;;-0.62;85.18
46690;BME280;32423;45.398;10.874;2024-01-30T07:43:42;102877.03;;;-0.59;86.54
46690;BME280;32423;45.398;10.874;2024-01-30T07:46:34;102865.28;;;-0.44;85.50
46690;BME280;32423;45.398;10.874;2024-01-30T07:49:26;102870.47;;;-0.42;85.68
46690;BME280;32423;45.398;10.874;2024-01-30T07:52:18;102868.44;;;-0.55;85.04
46690;BME280;32423;45.398;10.874;2024-01-30T07:55:10;102878.25;;;-0.62;84.30
46690;BME280;32423;45.398;10.874;2024-01-30T07:58:02;102877.50;;;-0.34;84.94
46690;BME280;32423;45.398;10.874;2024-01-30T08:00:54;102885.22;;;-0.25;84.64
46690;BME280;32423;45.398;10.874;2024-01-30T08:03:46;102884.59;;;-0.06;83.71
46690;BME280;32423;45.398;10.874;2024-01-30T08:06:35;102893.81;;;0.13;82.11
46690;BME280;32423;45.398;10.874;2024-01-30T08:09:25;102886.88;;;-0.03;82.78
46690;BME280;32423;45.398;10.874;2024-01-30T08:12:17;102890.72;;;0.10;84.55
46690;BME280;32423;45.398;10.874;2024-01-30T08:15:06;102894.91;;;0.74;83.87
46690;BME280;32423;45.398;10.874;2024-01-30T08:17:53;102900.63;;;0.65;80.90
46690;BME280;32423;45.398;10.874;2024-01-30T08:20:47;102893.06;;;-0.02;80.06
46690;BME280;32423;45.398;10.874;2024-01-30T08:23:38;102892.66;;;0.78;83.35
46690;BME280;32423;45.398;10.874;2024-01-30T08:26:29;102897.72;;;1.48;80.70
46690;BME280;32423;45.398;10.874;2024-01-30T08:29:22;102896.72;;;1.49;76.85
46690;BME280;32423;45.398;10.874;2024-01-30T08:32:12;102887.72;;;1.22;77.55
46690;BME280;32423;45.398;10.874;2024-01-30T08:35:04;102895.75;;;1.16;78.34
46690;BME280;32423;45.398;10.874;2024-01-30T08:37:55;102894.38;;;1.33;77.00
46690;BME280;32423;45.398;10.874;2024-01-30T08:40:45;102890.41;;;1.22;76.35
46690;BME280;32423;45.398;10.874;2024-01-30T08:43:37;102890.78;;;1.73;75.00
46690;BME280;32423;45.398;10.874;2024-01-30T08:46:29;102896.88;;;2.28;72.67
46690;BME280;32423;45.398;10.874;2024-01-30T08:49:21;102895.81;;;2.69;70.44
46690;BME280;32423;45.398;10.874;2024-01-30T08:52:13;102902.63;;;2.51;70.46
46690;BME280;32423;45.398;10.874;2024-01-30T08:55:04;102902.56;;;2.91;69.80
46690;BME280;32423;45.398;10.874;2024-01-30T08:57:56;102898.97;;;3.23;69.79
46690;BME280;32423;45.398;10.874;2024-01-30T09:00:48;102896.00;;;3.76;67.24
46690;BME280;32423;45.398;10.874;2024-01-30T09:03:40;102897.03;;;2.40;68.91
46690;BME280;32423;45.398;10.874;2024-01-30T09:06:30;102893.31;;;1.95;73.69
46690;BME280;32423;45.398;10.874;2024-01-30T09:09:22;102893.09;;;1.90;71.99
46690;BME280;32423;45.398;10.874;2024-01-30T09:12:17;102901.81;;;2.11;73.51
46690;BME280;32423;45.398;10.874;2024-01-30T09:15:09;102905.72;;;2.35;71.86
46690;BME280;32423;45.398;10.874;2024-01-30T09:18:01;102918.47;;;2.99;70.93
46690;BME280;32423;45.398;10.874;2024-01-30T09:20:53;102920.22;;;3.31;69.21
46690;BME280;32423;45.398;10.874;2024-01-30T09:23:42;102917.22;;;3.01;70.63
46690;BME280;32423;45.398;10.874;2024-01-30T09:26:34;102908.63;;;2.27;72.54
46690;BME280;32423;45.398;10.874;2024-01-30T09:29:26;102910.84;;;1.91;73.57
46690;BME280;32423;45.398;10.874;2024-01-30T09:32:15;102917.91;;;2.11;73.77
46690;BME280;32423;45.398;10.874;2024-01-30T09:35:08;102914.31;;;3.03;74.06
46690;BME280;32423;45.398;10.874;2024-01-30T09:37:59;102914.56;;;3.46;70.28
46690;BME280;32423;45.398;10.874;2024-01-30T09:40:52;102922.25;;;3.42;70.96
46690;BME280;32423;45.398;10.874;2024-01-30T09:43:42;102923.53;;;4.09;68.10
46690;BME280;32423;45.398;10.874;2024-01-30T09:46:38;102917.91;;;3.41;68.40
46690;BME280;32423;45.398;10.874;2024-01-30T09:49:28;102919.00;;;3.72;67.47
46690;BME280;32423;45.398;10.874;2024-01-30T09:52:20;102914.97;;;4.68;66.23
46690;BME280;32423;45.398;10.874;2024-01-30T09:55:12;102919.50;;;3.94;66.30
46690;BME280;32423;45.398;10.874;2024-01-30T09:58:02;102923.09;;;3.36;68.91
46690;BME280;32423;45.398;10.874;2024-01-30T10:00:54;102912.88;;;3.96;69.34
46690;BME280;32423;45.398;10.874;2024-01-30T10:03:44;102917.50;;;4.14;64.44
46690;BME280;32423;45.398;10.874;2024-01-30T10:06:34;102914.75;;;4.20;67.12
46690;BME280;32423;45.398;10.874;2024-01-30T10:09:26;102918.09;;;5.27;65.00
46690;BME280;32423;45.398;10.874;2024-01-30T10:12:16;102924.16;;;5.22;62.04
46690;BME280;32423;45.398;10.874;2024-01-30T10:15:06;102911.50;;;6.00;61.16
46690;BME280;32423;45.398;10.874;2024-01-30T10:17:59;102911.72;;;5.87;61.91
46690;BME280;32423;45.398;10.874;2024-01-30T10:20:49;102915.22;;;5.03;61.85
46690;BME280;32423;45.398;10.874;2024-01-30T10:23:38;102916.63;;;5.60;64.33
46690;BME280;32423;45.398;10.874;2024-01-30T10:26:25;102917.16;;;6.11;62.44
46690;BME280;32423;45.398;10.874;2024-01-30T10:29:17;102909.97;;;5.93;63.48
46690;BME280;32423;45.398;10.874;2024-01-30T10:32:09;102905.53;;;5.80;62.83
46690;BME280;32423;45.398;10.874;2024-01-30T10:34:59;102907.63;;;5.96;62.46
46690;BME280;32423;45.398;10.874;2024-01-30T10:37:48;102897.88;;;7.35;56.67
46690;BME280;32423;45.398;10.874;2024-01-30T10:40:45;102896.94;;;7.41;58.50
46690;BME280;32423;45.398;10.874;2024-01-30T10:43:40;102897.91;;;8.75;53.71
46690;BME280;32423;45.398;10.874;2024-01-30T10:46:32;102882.78;;;8.29;53.91
46690;BME280;32423;45.398;10.874;2024-01-30T10:49:21;102882.31;;;7.02;58.64
46690;BME280;32423;45.398;10.874;2024-01-30T10:52:15;102875.94;;;7.48;57.27
46690;BME280;32423;45.398;10.874;2024-01-30T10:55:06;102874.91;;;8.61;55.18
46690;BME280;32423;45.398;10.874;2024-01-30T10:57:58;102868.53;;;8.17;55.96
46690;BME280;32423;45.398;10.874;2024-01-30T11:00:50;102876.03;;;13.29;45.63
46690;BME280;32423;45.398;10.874;2024-01-30T11:03:42;102856.41;;;13.07;42.64
46690;BME280;32423;45.398;10.874;2024-01-30T11:06:40;102864.31;;;16.56;36.46
46690;BME280;32423;45.398;10.874;2024-01-30T11:09:31;102859.47;;;19.17;32.29
46690;BME280;32423;45.398;10.874;2024-01-30T11:12:28;102855.81;;;19.47;29.83
46690;BME280;32423;45.398;10.874;2024-01-30T11:15:20;102856.78;;;21.96;27.77
46690;BME280;32423;45.398;10.874;2024-01-30T11:18:12;102848.97;;;21.57;27.61
46690;BME280;32423;45.398;10.874;2024-01-30T11:21:14;102847.69;;;18.77;31.09
46690;BME280;32423;45.398;10.874;2024-01-30T11:24:05;102844.91;;;20.02;29.32
46690;BME280;32423;45.398;10.874;2024-01-30T11:27:03;102839.41;;;19.77;29.83
46690;BME280;32423;45.398;10.874;2024-01-30T11:29:54;102834.94;;;18.98;29.95
46690;BME280;32423;45.398;10.874;2024-01-30T11:32:57;102837.81;;;19.76;29.32
46690;BME280;32423;45.398;10.874;2024-01-30T11:35:50;102822.66;;;19.13;29.57
46690;BME280;32423;45.398;10.874;2024-01-30T11:38:42;102824.19;;;18.49;31.38
46690;BME280;32423;45.398;10.874;2024-01-30T11:41:31;102828.25;;;18.82;31.10
46690;BME280;32423;45.398;10.874;2024-01-30T11:44:24;102815.41;;;16.99;33.63
46690;BME280;32423;45.398;10.874;2024-01-30T11:47:13;102812.47;;;16.82;35.07
46690;BME280;32423;45.398;10.874;2024-01-30T11:50:03;102805.03;;;16.83;34.64
46690;BME280;32423;45.398;10.874;2024-01-30T11:52:55;102812.44;;;18.34;32.72
46690;BME280;32423;45.398;10.874;2024-01-30T11:55:49;102808.81;;;17.94;32.87
46690;BME280;32423;45.398;10.874;2024-01-30T11:58:40;102804.22;;;16.82;35.50
46690;BME280;32423;45.398;10.874;2024-01-30T12:01:32;102804.78;;;21.60;28.23
46690;BME280;32423;45.398;10.874;2024-01-30T12:04:23;102792.88;;;20.98;28.53
46690;BME280;32423;45.398;10.874;2024-01-30T12:07:19;102786.66;;;20.42;28.79
46690;BME280;32423;45.398;10.874;2024-01-30T12:10:11;102776.75;;;22.88;26.28
46690;BME280;32423;45.398;10.874;2024-01-30T12:13:02;102775.59;;;22.65;25.67
46690;BME280;32423;45.398;10.874;2024-01-30T12:15:52;102772.50;;;24.81;24.19
46690;BME280;32423;45.398;10.874;2024-01-30T12:18:44;102772.25;;;25.40;22.79
46690;BME280;32423;45.398;10.874;2024-01-30T12:21:36;102761.91;;;24.20;24.35
46690;BME280;32423;45.398;10.874;2024-01-30T12:24:28;102752.25;;;22.78;25.97
46690;BME280;32423;45.398;10.874;2024-01-30T12:27:20;102755.66;;;24.74;23.56
46690;BME280;32423;45.398;10.874;2024-01-30T12:30:10;102748.06;;;25.25;23.17
46690;BME280;32423;45.398;10.874;2024-01-30T12:33:03;102746.84;;;24.37;23.68
46690;BME280;32423;45.398;10.874;2024-01-30T12:35:57;102743.72;;;25.46;22.45
46690;BME280;32423;45.398;10.874;2024-01-30T12:38:52;102739.31;;;26.29;21.68
46690;BME280;32423;45.398;10.874;2024-01-30T12:41:44;102735.00;;;27.48;20.80
46690;BME280;32423;45.398;10.874;2024-01-30T12:44:36;102725.84;;;25.28;23.17
46690;BME280;32423;45.398;10.874;2024-01-30T12:47:23;102724.75;;;26.39;21.24
46690;BME280;32423;45.398;10.874;2024-01-30T12:50:15;102720.56;;;26.82;21.39
46690;BME280;32423;45.398;10.874;2024-01-30T12:53:06;102715.34;;;29.88;17.96
46690;BME280;32423;45.398;10.874;2024-01-30T12:55:58;102708.97;;;28.76;19.17
46690;BME280;32423;45.398;10.874;2024-01-30T12:58:50;102696.19;;;26.50;21.01
46690;BME280;32423;45.398;10.874;2024-01-30T13:01:42;102693.75;;;27.71;20.34
46690;BME280;32423;45.398;10.874;2024-01-30T13:04:34;102695.53;;;26.60;20.95
46690;BME280;32423;45.398;10.874;2024-01-30T13:07:26;102688.31;;;29.16;19.08
46690;BME280;32423;45.398;10.874;2024-01-30T13:10:15;102682.84;;;27.26;20.58
46690;BME280;32423;45.398;10.874;2024-01-30T13:13:07;102673.84;;;26.76;20.81
46690;BME280;32423;45.398;10.874;2024-01-30T13:15:59;102672.41;;;26.59;20.98
46690;BME280;32423;45.398;10.874;2024-01-30T13:18:51;102671.09;;;27.46;19.94
46690;BME280;32423;45.398;10.874;2024-01-30T13:21:43;102665.22;;;24.48;22.39
46690;BME280;32423;45.398;10.874;2024-01-30T13:24:33;102652.72;;;20.39;28.26
46690;BME280;32423;45.398;10.874;2024-01-30T13:27:25;102662.03;;;18.16;31.15
46690;BME280;32423;45.398;10.874;2024-01-30T13:30:15;102660.41;;;16.87;34.41
46690;BME280;32423;45.398;10.874;2024-01-30T13:33:07;102653.88;;;16.19;36.34
46690;BME280;32423;45.398;10.874;2024-01-30T13:35:59;102658.38;;;15.56;37.47
46690;BME280;32423;45.398;10.874;2024-01-30T13:38:56;102654.00;;;15.04;39.04
46690;BME280;32423;45.398;10.874;2024-01-30T13:41:48;102650.56;;;14.98;41.45
46690;BME280;32423;45.398;10.874;2024-01-30T13:44:40;102653.06;;;14.76;42.12
46690;BME280;32423;45.398;10.874;2024-01-30T13:47:30;102657.38;;;14.39;42.67
46690;BME280;32423;45.398;10.874;2024-01-30T13:50:19;102650.31;;;14.33;43.23
46690;BME280;32423;45.398;10.874;2024-01-30T13:53:09;102654.19;;;14.08;43.13
46690;BME280;32423;45.398;10.874;2024-01-30T13:56:01;102651.06;;;13.96;43.07
46690;BME280;32423;45.398;10.874;2024-01-30T13:58:53;102659.66;;;13.85;43.63
46690;BME280;32423;45.398;10.874;2024-01-30T14:01:45;102656.19;;;13.74;43.83
46690;BME280;32423;45.398;10.874;2024-01-30T14:04:37;102649.16;;;13.68;44.08
46690;BME280;32423;45.398;10.874;2024-01-30T14:07:26;102650.59;;;13.60;44.59
46690;BME280;32423;45.398;10.874;2024-01-30T14:10:17;102646.56;;;13.53;45.43
46690;BME280;32423;45.398;10.874;2024-01-30T14:13:09;102650.44;;;13.47;46.28
46690;BME280;32423;45.398;10.874;2024-01-30T14:16:02;102654.34;;;13.41;45.81
46690;BME280;32423;45.398;10.874;2024-01-30T14:18:52;102652.47;;;13.31;46.90
46690;BME280;32423;45.398;10.874;2024-01-30T14:21:42;102654.66;;;13.34;47.14
46690;BME280;32423;45.398;10.874;2024-01-30T14:24:34;102660.28;;;13.14;47.81
46690;BME280;32423;45.398;10.874;2024-01-30T14:27:24;102653.16;;;13.18;48.00
46690;BME280;32423;45.398;10.874;2024-01-30T14:30:15;102652.66;;;13.06;47.80
46690;BME280;32423;45.398;10.874;2024-01-30T14:33:09;102647.72;;;13.08;47.93
46690;BME280;32423;45.398;10.874;2024-01-30T14:36:01;102649.44;;;12.99;48.30
46690;BME280;32423;45.398;10.874;2024-01-30T14:38:53;102656.25;;;13.01;48.44
46690;BME280;32423;45.398;10.874;2024-01-30T14:41:45;102660.94;;;12.91;49.19
46690;BME280;32423;45.398;10.874;2024-01-30T14:44:37;102655.94;;;13.08;48.85
46690;BME280;32423;45.398;10.874;2024-01-30T14:47:27;102654.13;;;12.93;49.56
46690;BME280;32423;45.398;10.874;2024-01-30T14:50:14;102653.88;;;12.90;49.90